Time;durP1;ratioP1;P1;durP2;ratioP2;P2;SDS_P1;SDS_P2;PMS_P1;PMS_P2;Temp;Humidity;BMP_temperature;BMP_pressure;BME280_temperature;BME280_humidity;BME280_pressure;Samples;Min_cycle;Max_cycle;Signal;HPM_P1;HPM_P2
2023/05/02 00:01:50;;;;;;;23.02;10.00;;;11.00;99.90;;;;;;6157819;23;20032;-85
2023/05/02 00:04:17;;;;;;;18.27;10.50;;;11.00;99.90;;;;;;6156731;23;20033;-84
2023/05/02 00:06:45;;;;;;;19.33;9.48;;;10.90;99.90;;;;;;6156838;23;20036;-85
2023/05/02 00:09:11;;;;;;;16.42;7.97;;;10.90;99.90;;;;;;6132220;23;20013;-83
2023/05/02 00:11:37;;;;;;;11.77;6.53;;;10.80;99.90;;;;;;6156367;23;20009;-84
2023/05/02 00:14:02;;;;;;;11.52;6.05;;;10.70;99.90;;;;;;6131961;23;20375;-84
2023/05/02 00:16:28;;;;;;;13.98;6.43;;;10.70;99.90;;;;;;6157062;23;20017;-84
2023/05/02 00:18:54;;;;;;;9.57;5.25;;;11.40;99.90;;;;;;6132377;23;20009;-86
2023/05/02 00:21:19;;;;;;;12.48;5.10;;;10.90;99.90;;;;;;6157740;23;20009;-85
2023/05/02 00:23:45;;;;;;;13.15;4.82;;;11.10;99.90;;;;;;6157428;23;20076;-84
2023/05/02 00:26:10;;;;;;;12.45;5.20;;;10.80;99.90;;;;;;6156220;23;20059;-84
2023/05/02 00:28:36;;;;;;;11.68;5.18;;;10.40;99.90;;;;;;6157067;23;20021;-84
2023/05/02 00:31:03;;;;;;;11.38;5.47;;;10.40;99.90;;;;;;6157048;23;20044;-84
2023/05/02 00:33:29;;;;;;;11.82;5.50;;;10.60;99.90;;;;;;6183439;23;20262;-85
2023/05/02 00:35:55;;;;;;;10.30;4.75;;;10.30;99.90;;;;;;6132220;23;20028;-85
2023/05/02 00:38:20;;;;;;;11.85;4.85;;;10.20;99.90;;;;;;6156788;23;20013;-84
2023/05/02 00:40:50;;;;;;;12.20;6.20;;;10.20;99.90;;;;;;6157154;23;20028;-84
2023/05/02 00:43:16;;;;;;;13.07;5.93;;;10.80;99.90;;;;;;6160619;23;20013;-84
2023/05/02 00:45:43;;;;;;;13.60;5.28;;;10.20;99.90;;;;;;6160274;23;20519;-84
2023/05/02 00:48:09;;;;;;;13.93;5.72;;;10.20;99.90;;;;;;6135349;23;20096;-84
2023/05/02 00:50:39;;;;;;;17.73;6.00;;;10.90;99.90;;;;;;6160317;23;20017;-84
2023/05/02 00:53:06;;;;;;;16.67;6.22;;;10.50;99.90;;;;;;6160184;23;20504;-84
2023/05/02 00:55:35;;;;;;;13.75;5.47;;;10.70;99.90;;;;;;6186422;23;20009;-84
2023/05/02 00:58:07;;;;;;;10.85;5.00;;;10.20;99.90;;;;;;6159955;23;20045;-84
2023/05/02 01:00:59;;;;;;;9.18;4.85;;;10.20;99.90;;;;;;6160127;23;20448;-83
2023/05/02 01:03:55;;;;;;;8.82;4.80;;;10.20;99.90;;;;;;6135054;23;20125;-84
2023/05/02 01:06:56;;;;;;;10.95;4.95;;;10.20;99.90;;;;;;6135423;23;20013;-83
2023/05/02 01:09:45;;;;;;;12.25;4.80;;;10.20;99.90;;;;;;6159878;23;20048;-84
2023/05/02 01:12:46;;;;;;;13.07;5.00;;;10.20;99.90;;;;;;6159848;23;20036;-84
2023/05/02 01:15:17;;;;;;;10.85;4.75;;;10.20;99.90;;;;;;6159637;23;20072;-83
2023/05/02 01:17:44;;;;;;;9.60;4.40;;;10.20;99.90;;;;;;6186139;23;20015;-84
2023/05/02 01:20:15;;;;;;;11.10;4.70;;;10.50;99.90;;;;;;6186239;23;20063;-84
2023/05/02 01:22:41;;;;;;;13.10;5.30;;;10.10;99.90;;;;;;6159927;23;20036;-82
2023/05/02 01:25:19;;;;;;;12.02;4.68;;;10.10;99.90;;;;;;6159200;23;20013;-84
2023/05/02 01:28:22;;;;;;;12.10;5.13;;;10.10;99.90;;;;;;6135133;23;20017;-84
2023/05/02 01:30:49;;;;;;;13.27;4.75;;;10.00;99.90;;;;;;6135139;23;20370;-84
2023/05/02 01:33:17;;;;;;;9.43;4.45;;;10.10;99.90;;;;;;6159915;23;20052;-84
2023/05/02 01:35:48;;;;;;;11.80;4.88;;;10.20;99.90;;;;;;6135054;23;20024;-84
2023/05/02 01:38:15;;;;;;;12.55;4.95;;;10.10;99.90;;;;;;6135489;23;20013;-84
2023/05/02 01:40:43;;;;;;;21.55;5.00;;;10.40;99.90;;;;;;6185970;23;20026;-84
2023/05/02 01:43:11;;;;;;;11.32;4.72;;;10.10;99.90;;;;;;6159856;23;20013;-83
2023/05/02 01:45:38;;;;;;;13.63;4.75;;;10.10;99.90;;;;;;6186246;23;20020;-84
2023/05/02 01:48:06;;;;;;;9.75;4.80;;;9.60;99.90;;;;;;6159612;23;20020;-84
2023/05/02 01:50:33;;;;;;;16.38;4.88;;;10.60;99.90;;;;;;6159628;23;20009;-84
2023/05/02 01:53:02;;;;;;;10.15;4.07;;;10.00;99.90;;;;;;6134026;23;20013;-83
2023/05/02 01:55:28;;;;;;;14.48;5.40;;;10.10;99.90;;;;;;6157603;23;20016;-86
2023/05/02 01:57:56;;;;;;;15.32;5.45;;;10.70;99.90;;;;;;6158344;23;20463;-84
2023/05/02 02:00:24;;;;;;;16.25;5.95;;;10.30;99.90;;;;;;6134435;23;20020;-85
2023/05/02 02:02:52;;;;;;;22.23;5.97;;;9.80;99.90;;;;;;6158860;23;20013;-84
2023/05/02 02:05:19;;;;;;;20.33;5.65;;;10.30;99.90;;;;;;6158065;23;20021;-84
2023/05/02 02:07:45;;;;;;;23.20;6.50;;;9.30;99.90;;;;;;6133183;23;20076;-83
2023/05/02 02:10:11;;;;;;;28.13;6.68;;;9.10;99.90;;;;;;6184584;23;20107;-83
2023/05/02 02:12:59;;;;;;;24.27;6.50;;;9.60;99.90;;;;;;6133073;23;20016;-84
2023/05/02 02:15:27;;;;;;;24.75;6.47;;;9.00;99.90;;;;;;6133210;23;20088;-84
2023/05/02 02:18:12;;;;;;;25.08;6.22;;;8.90;99.90;;;;;;6157634;23;20060;-83
2023/05/02 02:20:42;;;;;;;23.38;6.28;;;8.80;99.90;;;;;;6184377;23;20009;-84
2023/05/02 02:23:09;;;;;;;23.48;6.55;;;8.70;99.90;;;;;;6157118;23;20041;-84
2023/05/02 02:25:35;;;;;;;26.80;6.85;;;8.70;99.90;;;;;;6184374;23;20013;-83
2023/05/02 02:28:01;;;;;;;29.38;8.10;;;8.70;99.90;;;;;;6158001;23;20009;-83
2023/05/02 02:30:27;;;;;;;31.25;7.10;;;8.70;99.90;;;;;;6133331;23;20476;-84
2023/05/02 02:32:52;;;;;;;30.00;6.93;;;8.70;99.90;;;;;;6132916;23;20009;-84
2023/05/02 02:35:18;;;;;;;23.08;7.13;;;8.70;99.90;;;;;;6184293;23;20459;-83
2023/05/02 02:38:13;;;;;;;29.08;7.47;;;8.70;99.90;;;;;;6157094;23;20017;-83
2023/05/02 02:40:52;;;;;;;22.52;7.18;;;8.70;99.90;;;;;;6157875;23;20043;-84
2023/05/02 02:43:32;;;;;;;36.75;7.85;;;8.80;99.90;;;;;;6157598;23;20456;-84
2023/05/02 02:46:26;;;;;;;32.97;7.30;;;8.70;99.90;;;;;;6158021;23;20064;-84
2023/05/02 02:49:17;;;;;;;26.67;7.25;;;8.70;99.90;;;;;;6184466;23;20076;-83
2023/05/02 02:51:52;;;;;;;25.27;8.00;;;8.60;99.90;;;;;;6132604;23;20391;-84
2023/05/02 02:54:30;;;;;;;29.83;7.18;;;8.60;99.90;;;;;;6184299;23;20029;-83
2023/05/02 02:57:06;;;;;;;34.33;7.80;;;8.50;99.90;;;;;;6157440;23;20056;-84
2023/05/02 02:59:36;;;;;;;36.47;7.43;;;8.40;99.90;;;;;;6157297;23;20009;-83
2023/05/02 03:02:12;;;;;;;30.52;7.07;;;8.40;99.90;;;;;;6184291;23;20290;-84
2023/05/02 03:04:40;;;;;;;26.20;7.05;;;8.40;99.90;;;;;;6156750;23;20009;-83
2023/05/02 03:07:06;;;;;;;30.33;7.10;;;8.30;99.90;;;;;;6156988;23;20024;-84
2023/05/02 03:09:45;;;;;;;28.90;6.63;;;8.30;99.90;;;;;;6183763;23;20090;-83
2023/05/02 03:12:12;;;;;;;26.92;6.57;;;8.30;99.90;;;;;;6183689;23;20025;-84
2023/05/02 03:14:38;;;;;;;22.52;6.35;;;8.30;99.90;;;;;;6157093;23;20080;-83
2023/05/02 03:17:04;;;;;;;24.13;6.70;;;8.70;99.90;;;;;;6183732;23;20029;-84
2023/05/02 03:19:30;;;;;;;27.58;6.63;;;8.30;99.90;;;;;;6183933;23;20020;-84
2023/05/02 03:21:56;;;;;;;28.55;6.70;;;9.10;99.90;;;;;;6183036;23;20120;-84
2023/05/02 03:24:22;;;;;;;21.23;5.93;;;9.00;99.90;;;;;;6157028;23;20048;-83
2023/05/02 03:26:47;;;;;;;22.80;6.40;;;8.20;99.90;;;;;;6157493;23;20023;-84
2023/05/02 03:29:14;;;;;;;20.90;5.85;;;8.70;99.90;;;;;;6156969;23;20017;-83
2023/05/02 03:31:40;;;;;;;21.60;6.38;;;8.70;99.90;;;;;;6132610;23;20016;-83
2023/05/02 03:34:06;;;;;;;21.33;5.53;;;8.20;99.90;;;;;;6157093;23;20072;-83
2023/05/02 03:36:31;;;;;;;32.42;6.30;;;8.00;99.90;;;;;;6156940;23;20017;-84
2023/05/02 03:38:57;;;;;;;25.35;6.22;;;8.80;99.90;;;;;;6156874;23;20020;-84
2023/05/02 03:41:23;;;;;;;16.98;4.97;;;8.50;99.90;;;;;;6183684;23;20009;-84
2023/05/02 03:43:50;;;;;;;19.05;5.13;;;8.60;99.90;;;;;;6132648;23;20048;-84
2023/05/02 03:46:15;;;;;;;17.38;4.82;;;8.60;99.90;;;;;;6183856;23;20076;-84
2023/05/02 03:48:41;;;;;;;17.75;4.75;;;7.70;99.90;;;;;;6156962;23;20452;-83
2023/05/02 03:51:08;;;;;;;21.20;4.45;;;7.90;99.90;;;;;;6131884;23;20091;-84
2023/05/02 03:53:35;;;;;;;24.85;4.97;;;8.40;99.90;;;;;;6157476;23;20036;-84
2023/05/02 03:56:01;;;;;;;23.77;5.38;;;7.90;99.90;;;;;;6132474;23;20016;-84
2023/05/02 03:58:26;;;;;;;20.67;4.65;;;7.90;99.90;;;;;;6157029;23;20017;-83
2023/05/02 04:00:52;;;;;;;18.17;4.35;;;7.90;99.90;;;;;;6157664;23;20013;-85
2023/05/02 04:03:18;;;;;;;15.88;4.30;;;7.80;99.90;;;;;;6132459;23;20423;-85
2023/05/02 04:05:44;;;;;;;17.20;3.72;;;7.70;99.90;;;;;;6131568;23;20467;-84
2023/05/02 04:08:10;;;;;;;15.98;4.20;;;7.80;99.90;;;;;;6156718;23;20024;-83
2023/05/02 04:10:36;;;;;;;17.80;3.75;;;7.80;99.90;;;;;;6156826;23;20417;-84
2023/05/02 04:13:02;;;;;;;21.95;4.28;;;8.20;99.90;;;;;;6156420;23;20045;-83
2023/05/02 04:15:29;;;;;;;18.27;4.07;;;7.90;99.90;;;;;;6156471;23;20021;-84
2023/05/02 04:17:57;;;;;;;16.67;3.90;;;7.70;99.90;;;;;;6183203;23;20107;-83
2023/05/02 04:20:22;;;;;;;17.02;3.88;;;7.70;99.90;;;;;;6156330;23;20040;-83
2023/05/02 04:22:49;;;;;;;13.93;3.90;;;7.70;99.90;;;;;;6156837;23;20013;-84
2023/05/02 04:25:15;;;;;;;13.63;3.95;;;7.70;99.90;;;;;;6183493;23;20013;-85
2023/05/02 04:27:41;;;;;;;18.33;4.53;;;7.70;99.90;;;;;;6156983;23;20372;-83
2023/05/02 04:30:09;;;;;;;12.98;3.83;;;7.70;99.90;;;;;;6132026;23;20013;-84
2023/05/02 04:32:34;;;;;;;8.82;3.35;;;7.70;99.90;;;;;;6156159;23;20135;-84
2023/05/02 04:35:00;;;;;;;15.98;3.88;;;7.70;99.90;;;;;;6131983;23;20421;-84
2023/05/02 04:37:26;;;;;;;11.40;3.30;;;7.70;99.90;;;;;;6156839;23;20063;-83
2023/05/02 04:39:51;;;;;;;15.65;3.63;;;7.90;99.90;;;;;;6131864;23;20318;-84
2023/05/02 04:42:17;;;;;;;14.73;3.10;;;7.80;99.90;;;;;;6131994;23;20374;-83
2023/05/02 04:44:43;;;;;;;13.60;3.30;;;7.90;99.90;;;;;;6156650;23;20013;-83
2023/05/02 04:47:09;;;;;;;11.65;3.08;;;7.70;99.90;;;;;;6182822;23;20432;-82
2023/05/02 04:49:35;;;;;;;11.88;2.60;;;7.70;99.90;;;;;;6156370;23;20325;-84
2023/05/02 04:52:00;;;;;;;12.35;3.20;;;7.70;99.90;;;;;;6156520;23;20025;-84
2023/05/02 04:54:26;;;;;;;14.30;3.08;;;7.60;99.90;;;;;;6183050;23;20018;-84
2023/05/02 04:56:52;;;;;;;10.15;2.72;;;7.30;99.90;;;;;;6131719;23;20009;-83
2023/05/02 04:59:18;;;;;;;10.88;3.10;;;7.60;99.90;;;;;;6183124;23;20011;-83
2023/05/02 05:01:44;;;;;;;15.60;3.63;;;7.60;99.90;;;;;;6182647;23;20013;-83
2023/05/02 05:04:10;;;;;;;9.38;3.33;;;8.40;99.90;;;;;;6132084;23;20013;-83
2023/05/02 05:06:35;;;;;;;12.80;3.05;;;8.70;99.90;;;;;;6183042;23;20491;-83
2023/05/02 05:09:02;;;;;;;9.15;2.80;;;8.60;99.90;;;;;;6131906;23;20448;-84
2023/05/02 05:11:28;;;;;;;12.55;3.47;;;8.40;99.90;;;;;;6156274;23;20080;-83
2023/05/02 05:13:54;;;;;;;11.77;3.53;;;7.80;99.90;;;;;;6156144;23;20059;-83
2023/05/02 05:16:20;;;;;;;10.98;2.83;;;7.80;99.90;;;;;;6156283;23;20432;-83
2023/05/02 05:18:48;;;;;;;11.20;3.35;;;8.50;99.90;;;;;;6131805;23;20087;-84
2023/05/02 05:21:13;;;;;;;10.27;2.67;;;8.30;99.90;;;;;;6183471;23;20059;-83
2023/05/02 05:23:44;;;;;;;12.00;3.45;;;8.70;99.90;;;;;;6156660;23;20436;-83
2023/05/02 05:26:16;;;;;;;15.13;3.30;;;7.80;99.90;;;;;;6156484;23;20340;-84
2023/05/02 05:28:42;;;;;;;16.45;3.88;;;8.20;99.90;;;;;;6184125;23;20021;-84
2023/05/02 05:31:10;;;;;;;15.13;3.60;;;8.60;99.90;;;;;;6157585;23;20440;-84
2023/05/02 05:33:37;;;;;;;12.88;3.75;;;8.50;99.90;;;;;;6158673;23;20454;-84
2023/05/02 05:36:11;;;;;;;12.57;3.97;;;8.50;99.90;;;;;;6158110;23;20350;-83
2023/05/02 05:38:36;;;;;;;10.32;3.45;;;8.60;99.90;;;;;;6184670;23;20017;-84
2023/05/02 05:41:04;;;;;;;16.83;4.18;;;8.70;99.90;;;;;;6184518;23;20063;-84
2023/05/02 05:43:30;;;;;;;15.88;3.80;;;7.80;99.90;;;;;;6133049;23;20009;-84
2023/05/02 05:45:55;;;;;;;14.68;4.68;;;8.70;99.90;;;;;;6132484;23;20092;-84
2023/05/02 05:48:22;;;;;;;14.00;4.60;;;7.90;99.90;;;;;;6157807;23;20073;-84
2023/05/02 05:50:48;;;;;;;15.82;4.22;;;8.10;99.90;;;;;;6184270;23;20020;-84
2023/05/02 05:53:14;;;;;;;14.52;4.20;;;8.60;99.90;;;;;;6157529;23;20012;-85
2023/05/02 05:55:41;;;;;;;16.65;4.18;;;8.40;99.90;;;;;;6157305;23;20017;-85
2023/05/02 05:58:07;;;;;;;16.95;4.18;;;8.60;99.90;;;;;;6132904;23;20096;-84
2023/05/02 06:00:37;;;;;;;18.13;4.30;;;8.50;99.90;;;;;;6157155;23;20013;-84
2023/05/02 06:03:03;;;;;;;13.27;3.83;;;7.90;99.90;;;;;;6132853;23;20099;-84
2023/05/02 06:05:29;;;;;;;22.02;4.95;;;8.00;99.90;;;;;;6184171;23;20340;-86
2023/05/02 06:07:55;;;;;;;13.43;4.30;;;7.90;99.90;;;;;;6157439;23;20487;-85
2023/05/02 06:10:24;;;;;;;15.88;4.35;;;7.90;99.90;;;;;;6157424;23;20088;-84
2023/05/02 06:12:50;;;;;;;16.00;4.43;;;8.20;99.90;;;;;;6157211;23;20077;-85
2023/05/02 06:15:16;;;;;;;13.40;4.43;;;7.90;99.90;;;;;;6156759;23;20053;-84
2023/05/02 06:17:41;;;;;;;14.23;3.72;;;8.00;99.90;;;;;;6184106;23;20080;-84
2023/05/02 06:20:08;;;;;;;18.35;4.78;;;8.10;99.90;;;;;;6183322;23;20013;-85
2023/05/02 06:22:34;;;;;;;18.63;5.00;;;8.00;99.90;;;;;;6183662;23;20234;-85
2023/05/02 06:25:00;;;;;;;20.45;4.80;;;8.20;99.90;;;;;;6157239;23;20016;-85
2023/05/02 06:27:25;;;;;;;16.23;4.40;;;8.40;99.90;;;;;;6156975;23;20424;-85
2023/05/02 06:29:52;;;;;;;15.55;3.90;;;8.50;99.90;;;;;;6156617;23;20021;-84
2023/05/02 06:32:18;;;;;;;16.80;4.22;;;8.40;99.90;;;;;;6132685;23;20055;-85
2023/05/02 06:34:44;;;;;;;14.25;4.20;;;8.50;99.90;;;;;;6132436;23;20012;-85
2023/05/02 06:37:10;;;;;;;7.97;3.20;;;8.80;99.90;;;;;;6132615;23;20139;-85
2023/05/02 06:39:36;;;;;;;14.15;3.70;;;8.90;99.90;;;;;;6132542;23;20024;-84
2023/05/02 06:42:01;;;;;;;15.07;4.60;;;9.10;99.90;;;;;;6157222;23;20023;-85
2023/05/02 06:44:27;;;;;;;15.77;3.80;;;8.30;99.90;;;;;;6156553;23;20087;-85
2023/05/02 06:46:54;;;;;;;11.90;3.53;;;8.60;99.90;;;;;;6184008;23;20009;-85
2023/05/02 06:49:20;;;;;;;22.63;4.97;;;8.30;99.90;;;;;;6132478;23;20468;-85
2023/05/02 06:51:46;;;;;;;13.35;4.20;;;9.00;99.90;;;;;;6157099;23;20021;-85
2023/05/02 06:54:13;;;;;;;16.08;3.75;;;8.30;99.90;;;;;;6157507;23;20024;-85
2023/05/02 06:56:39;;;;;;;14.48;4.05;;;9.10;99.90;;;;;;6132602;23;20337;-84
2023/05/02 06:59:05;;;;;;;13.48;4.20;;;8.90;99.90;;;;;;6131722;23;20013;-84
2023/05/02 07:01:30;;;;;;;13.82;4.00;;;9.20;99.90;;;;;;6157479;23;20013;-85
2023/05/02 07:03:59;;;;;;;13.40;4.22;;;9.10;99.90;;;;;;6157016;23;20322;-85
2023/05/02 07:06:25;;;;;;;12.00;4.20;;;8.50;99.90;;;;;;6132576;23;20020;-85
2023/05/02 07:08:51;;;;;;;12.07;3.75;;;8.80;99.90;;;;;;6132532;23;20095;-85
2023/05/02 07:11:17;;;;;;;13.90;4.25;;;8.60;99.90;;;;;;6132468;23;20055;-85
2023/05/02 07:13:43;;;;;;;16.95;4.60;;;9.10;99.90;;;;;;6156366;23;20020;-85
2023/05/02 07:16:08;;;;;;;17.33;4.45;;;9.30;99.90;;;;;;6156947;23;20013;-85
2023/05/02 07:18:35;;;;;;;12.70;4.13;;;8.70;99.90;;;;;;6183191;23;20437;-85
2023/05/02 07:21:00;;;;;;;18.02;4.10;;;8.80;99.90;;;;;;6132491;23;20024;-84
2023/05/02 07:23:26;;;;;;;12.35;4.07;;;9.00;99.90;;;;;;6157331;23;20001;-85
2023/05/02 07:25:52;;;;;;;16.90;4.50;;;9.80;99.90;;;;;;6157087;23;20105;-85
2023/05/02 07:28:17;;;;;;;11.45;3.35;;;9.30;99.90;;;;;;6131913;23;20079;-85
2023/05/02 07:30:43;;;;;;;15.38;3.88;;;10.10;99.90;;;;;;6156839;23;20036;-85
2023/05/02 07:33:09;;;;;;;14.50;3.67;;;9.80;99.90;;;;;;6132480;23;20031;-85
2023/05/02 07:35:34;;;;;;;15.88;3.65;;;9.70;99.90;;;;;;6157233;23;20476;-85
2023/05/02 07:38:00;;;;;;;11.85;3.45;;;9.30;99.90;;;;;;6156686;23;20338;-84
2023/05/02 07:40:27;;;;;;;11.40;3.63;;;9.70;99.90;;;;;;6156833;23;20009;-85
2023/05/02 07:42:53;;;;;;;14.32;3.90;;;10.10;99.90;;;;;;6156048;23;20051;-85
2023/05/02 07:45:18;;;;;;;14.05;3.80;;;10.60;99.90;;;;;;6182977;23;20025;-85
2023/05/02 07:47:45;;;;;;;18.95;4.18;;;9.90;99.90;;;;;;6156686;23;20013;-85
2023/05/02 07:50:10;;;;;;;16.55;4.15;;;10.50;99.90;;;;;;6131975;23;20100;-85
2023/05/02 07:52:36;;;;;;;14.00;4.13;;;10.50;99.90;;;;;;6131992;23;20048;-85
2023/05/02 07:55:02;;;;;;;13.32;4.18;;;10.10;99.90;;;;;;6132163;23;20528;-85
2023/05/02 07:57:27;;;;;;;12.05;3.25;;;10.00;99.90;;;;;;6156404;23;20021;-85
2023/05/02 07:59:56;;;;;;;10.80;3.78;;;10.30;99.90;;;;;;6156798;23;20451;-85
2023/05/02 08:02:22;;;;;;;18.00;4.00;;;10.40;99.90;;;;;;6156723;23;20440;-85
2023/05/02 08:04:51;;;;;;;15.82;3.80;;;10.80;99.90;;;;;;6183352;23;20024;-85
2023/05/02 08:07:16;;;;;;;12.85;3.60;;;10.30;99.90;;;;;;6183214;23;20041;-85
2023/05/02 08:09:42;;;;;;;11.18;3.58;;;10.20;99.90;;;;;;6183311;23;20503;-84
2023/05/02 08:12:08;;;;;;;15.65;4.15;;;10.20;99.90;;;;;;6155577;23;20103;-85
2023/05/02 08:14:33;;;;;;;10.85;3.42;;;10.30;99.90;;;;;;6156910;23;20021;-85
2023/05/02 08:16:59;;;;;;;13.48;3.20;;;10.80;99.90;;;;;;6156697;23;20032;-85
2023/05/02 08:19:26;;;;;;;8.85;3.13;;;10.70;99.90;;;;;;6131539;23;20136;-85
2023/05/02 08:21:54;;;;;;;11.57;3.15;;;10.30;99.90;;;;;;6156289;23;20013;-85
2023/05/02 08:24:21;;;;;;;5.93;2.60;;;10.30;99.90;;;;;;6182966;23;20427;-85
2023/05/02 08:26:46;;;;;;;9.07;3.50;;;10.20;99.90;;;;;;6182389;23;20051;-85
2023/05/02 08:29:12;;;;;;;9.85;3.28;;;10.30;99.90;;;;;;6182917;23;20013;-85
2023/05/02 08:31:39;;;;;;;9.77;3.10;;;10.50;99.90;;;;;;6183223;23;20009;-85
2023/05/02 08:34:05;;;;;;;6.70;2.83;;;10.90;99.90;;;;;;6182766;23;20040;-85
2023/05/02 08:36:31;;;;;;;9.02;2.55;;;11.40;99.90;;;;;;6131760;23;20063;-85
2023/05/02 08:38:59;;;;;;;8.38;2.55;;;11.10;99.90;;;;;;6182823;23;20310;-85
2023/05/02 08:41:28;;;;;;;10.13;2.40;;;12.00;99.90;;;;;;6131326;23;20009;-85
2023/05/02 08:43:55;;;;;;;10.45;2.25;;;12.00;99.90;;;;;;6156294;23;20013;-85
2023/05/02 08:46:22;;;;;;;11.73;2.50;;;11.60;99.60;;;;;;6182983;23;20010;-85
2023/05/02 08:48:50;;;;;;;9.20;2.00;;;11.80;99.90;;;;;;6183001;23;20443;-85
2023/05/02 08:51:17;;;;;;;8.10;1.80;;;11.70;99.50;;;;;;6156586;23;20397;-85
2023/05/02 08:53:44;;;;;;;9.82;2.65;;;11.20;99.70;;;;;;6155777;23;20016;-85
2023/05/02 08:56:11;;;;;;;7.68;1.88;;;11.30;99.90;;;;;;6182970;23;20020;-85
2023/05/02 08:58:39;;;;;;;9.15;1.90;;;11.40;99.50;;;;;;6182661;23;20092;-85
2023/05/02 09:01:27;;;;;;;5.40;2.03;;;11.00;99.20;;;;;;6182835;23;20021;-85
2023/05/02 09:03:54;;;;;;;7.07;1.90;;;11.50;99.90;;;;;;6184849;23;20013;-84
2023/05/02 09:06:21;;;;;;;7.25;2.20;;;11.20;98.70;;;;;;6133424;23;20088;-85
2023/05/02 09:08:49;;;;;;;5.38;1.70;;;11.20;97.80;;;;;;6157688;23;20020;-85
2023/05/02 09:11:16;;;;;;;5.88;1.90;;;11.60;98.00;;;;;;6133331;23;20040;-85
2023/05/02 09:13:44;;;;;;;6.32;1.70;;;11.40;97.60;;;;;;6183937;23;20440;-84
2023/05/02 09:16:15;;;;;;;5.65;1.50;;;11.70;98.20;;;;;;6157760;23;20013;-85
2023/05/02 09:18:43;;;;;;;4.15;1.70;;;11.50;97.40;;;;;;6157869;23;20016;-84
2023/05/02 09:21:15;;;;;;;4.60;1.50;;;11.50;96.70;;;;;;6133191;23;20009;-85
2023/05/02 09:23:42;;;;;;;7.78;1.70;;;11.60;97.30;;;;;;6184166;23;20013;-85
2023/05/02 09:26:11;;;;;;;7.55;2.53;;;11.20;97.00;;;;;;6133319;23;20019;-84
2023/05/02 09:28:41;;;;;;;4.55;1.55;;;12.00;98.20;;;;;;6157829;23;20013;-85
2023/05/02 09:31:08;;;;;;;8.90;1.73;;;11.90;98.10;;;;;;6158032;23;20036;-85
2023/05/02 09:33:35;;;;;;;6.68;1.30;;;11.90;95.00;;;;;;6158149;23;20024;-85
2023/05/02 09:36:00;;;;;;;6.85;1.70;;;11.50;95.60;;;;;;6184465;23;20087;-85
2023/05/02 09:38:26;;;;;;;4.75;1.50;;;11.70;96.60;;;;;;6183491;23;20395;-85
2023/05/02 09:40:59;;;;;;;5.57;1.80;;;11.70;97.40;;;;;;6132947;23;20088;-85
2023/05/02 09:43:25;;;;;;;4.90;1.85;;;11.70;96.60;;;;;;6157652;23;20056;-85
2023/05/02 09:46:03;;;;;;;8.15;1.90;;;12.10;98.10;;;;;;6157456;23;20511;-85
2023/05/02 09:48:30;;;;;;;9.73;1.90;;;11.80;98.40;;;;;;6183920;23;20089;-85
2023/05/02 09:50:57;;;;;;;9.63;1.90;;;12.10;98.60;;;;;;6157235;23;20025;-84
2023/05/02 09:53:26;;;;;;;9.27;2.15;;;11.90;98.30;;;;;;6183208;23;20020;-85
2023/05/02 09:56:00;;;;;;;8.27;2.03;;;11.80;98.00;;;;;;6184022;23;20013;-86
2023/05/02 09:58:25;;;;;;;8.52;2.40;;;11.60;99.40;;;;;;6183830;23;20017;-85
2023/05/02 10:00:51;;;;;;;6.60;1.75;;;11.80;99.50;;;;;;6157674;23;20408;-85
2023/05/02 10:03:18;;;;;;;9.82;1.90;;;11.70;99.90;;;;;;6157210;23;20013;-85
2023/05/02 10:05:45;;;;;;;7.97;2.10;;;11.80;99.90;;;;;;6184013;23;20332;-84
2023/05/02 10:08:12;;;;;;;7.10;1.90;;;11.40;99.90;;;;;;6156732;23;20005;-85
2023/05/02 10:10:45;;;;;;;7.07;2.10;;;11.40;99.90;;;;;;6157399;23;20013;-84
2023/05/02 10:13:13;;;;;;;8.27;1.90;;;11.50;99.90;;;;;;6156883;23;20028;-85
2023/05/02 10:15:43;;;;;;;4.88;1.50;;;11.40;99.90;;;;;;6183802;23;20088;-85
2023/05/02 10:18:14;;;;;;;6.20;1.80;;;12.00;99.90;;;;;;6184116;23;20013;-84
2023/05/02 10:20:49;;;;;;;4.35;1.50;;;11.70;99.90;;;;;;6132123;23;20009;-84
2023/05/02 10:23:17;;;;;;;5.28;1.65;;;12.10;99.30;;;;;;6183982;23;20085;-85
2023/05/02 10:25:42;;;;;;;7.15;1.67;;;12.40;99.80;;;;;;6157043;23;20400;-84
2023/05/02 10:28:10;;;;;;;7.30;1.90;;;12.50;99.90;;;;;;6132182;23;20091;-85
2023/05/02 10:30:36;;;;;;;7.65;1.90;;;12.50;99.40;;;;;;6132395;23;20017;-85
2023/05/02 10:33:03;;;;;;;7.90;1.60;;;12.50;99.20;;;;;;6184014;23;20144;-85
2023/05/02 10:35:30;;;;;;;8.77;1.80;;;12.20;99.00;;;;;;6132016;23;20009;-85
2023/05/02 10:37:57;;;;;;;4.47;1.33;;;12.20;98.90;;;;;;6157358;23;20013;-85
2023/05/02 10:40:23;;;;;;;7.20;1.83;;;12.20;99.40;;;;;;6183785;23;20044;-84
2023/05/02 10:42:50;;;;;;;5.80;1.70;;;11.90;97.60;;;;;;6132582;23;20009;-85
2023/05/02 10:45:37;;;;;;;6.32;1.58;;;11.80;98.60;;;;;;6183677;23;20340;-85
2023/05/02 10:48:17;;;;;;;4.18;1.63;;;11.90;98.30;;;;;;6132848;23;20021;-85
2023/05/02 10:50:45;;;;;;;4.57;1.35;;;12.20;99.90;;;;;;6156456;23;20336;-85
2023/05/02 10:53:46;;;;;;;4.15;1.70;;;12.40;98.60;;;;;;6183627;23;20163;-84
2023/05/02 10:56:24;;;;;;;4.28;1.27;;;12.90;96.20;;;;;;6132330;23;20490;-84
2023/05/02 10:58:52;;;;;;;5.18;1.27;;;12.80;96.00;;;;;;6132049;23;20089;-84
2023/05/02 11:01:25;;;;;;;3.97;1.50;;;12.80;96.30;;;;;;6156686;23;20496;-85
2023/05/02 11:03:57;;;;;;;4.38;1.50;;;12.60;96.60;;;;;;6156753;23;20172;-85
2023/05/02 11:06:28;;;;;;;6.63;1.45;;;12.40;96.20;;;;;;6156253;23;20009;-85
2023/05/02 11:09:15;;;;;;;3.47;1.50;;;12.60;96.90;;;;;;6132019;23;20130;-84
2023/05/02 11:11:41;;;;;;;6.47;1.55;;;12.40;96.30;;;;;;6183564;23;20091;-85
2023/05/02 11:14:08;;;;;;;8.43;1.52;;;12.40;96.00;;;;;;6156378;23;20021;-85
2023/05/02 11:17:07;;;;;;;3.20;1.30;;;12.20;96.10;;;;;;6132133;23;20005;-85
2023/05/02 11:19:45;;;;;;;4.25;1.80;;;12.30;96.50;;;;;;6123975;23;20088;-85
2023/05/02 11:22:16;;;;;;;5.45;1.80;;;12.50;98.20;;;;;;6132192;23;20074;-85
2023/05/02 11:24:43;;;;;;;8.65;1.70;;;12.30;99.90;;;;;;6156721;23;20511;-85
2023/05/02 11:27:28;;;;;;;7.78;2.35;;;12.30;99.90;;;;;;6156117;23;20344;-84
2023/05/02 11:29:53;;;;;;;9.82;2.33;;;12.00;99.90;;;;;;6157212;23;20009;-85
2023/05/02 11:32:19;;;;;;;12.90;2.15;;;11.90;99.90;;;;;;6132259;23;20048;-85
2023/05/02 11:34:45;;;;;;;7.15;1.92;;;11.70;99.90;;;;;;6156006;23;20462;-84
2023/05/02 11:37:12;;;;;;;6.55;1.92;;;11.80;99.90;;;;;;6156754;23;20286;-84
2023/05/02 11:39:39;;;;;;;4.45;1.70;;;12.10;99.90;;;;;;6156416;23;20063;-84
2023/05/02 11:42:05;;;;;;;7.10;1.80;;;12.20;99.90;;;;;;6156834;23;20080;-85
2023/05/02 11:44:30;;;;;;;8.95;1.70;;;12.40;99.90;;;;;;6156654;23;20052;-85
2023/05/02 11:46:56;;;;;;;6.20;2.20;;;12.70;99.90;;;;;;6156527;23;20448;-85
2023/05/02 11:49:22;;;;;;;6.47;1.90;;;13.00;99.90;;;;;;6131336;23;20009;-85
2023/05/02 11:51:47;;;;;;;5.90;1.75;;;13.20;98.90;;;;;;6182944;23;20151;-84
2023/05/02 11:54:20;;;;;;;4.97;1.70;;;13.60;99.90;;;;;;6156252;23;20377;-84
2023/05/02 11:56:47;;;;;;;5.90;1.80;;;13.40;97.60;;;;;;6132159;23;20017;-85
2023/05/02 11:59:12;;;;;;;5.80;1.60;;;13.30;98.60;;;;;;6156405;23;20016;-85
2023/05/02 12:01:49;;;;;;;4.03;1.55;;;13.00;98.00;;;;;;6183221;23;20503;-85
2023/05/02 12:04:14;;;;;;;7.30;1.70;;;12.90;99.70;;;;;;6131506;23;20009;-85
2023/05/02 12:06:54;;;;;;;6.50;1.65;;;12.60;99.50;;;;;;6156545;23;20063;-85
2023/05/02 12:09:20;;;;;;;6.20;1.80;;;12.60;99.90;;;;;;6131947;23;20292;-84
2023/05/02 12:11:51;;;;;;;4.88;1.60;;;12.60;99.90;;;;;;6131886;23;20017;-85
2023/05/02 12:14:28;;;;;;;5.43;1.65;;;12.70;99.30;;;;;;6151296;23;20025;-84
2023/05/02 12:16:58;;;;;;;6.78;1.52;;;12.70;99.50;;;;;;6126295;23;20054;-85
2023/05/02 12:19:24;;;;;;;4.43;1.55;;;12.80;99.80;;;;;;6153340;23;20017;-85
2023/05/02 12:21:50;;;;;;;8.38;1.60;;;12.90;98.80;;;;;;6151295;23;20084;-85
2023/05/02 12:24:16;;;;;;;11.10;1.95;;;13.10;99.30;;;;;;6153207;23;20084;-85
2023/05/02 12:26:42;;;;;;;6.20;1.33;;;13.20;99.10;;;;;;6126709;23;20060;-85
2023/05/02 12:29:08;;;;;;;5.43;1.35;;;13.10;98.00;;;;;;6153036;23;20017;-85
2023/05/02 12:31:33;;;;;;;4.85;1.20;;;13.10;98.10;;;;;;6125970;23;20105;-85
2023/05/02 12:34:00;;;;;;;5.65;1.30;;;12.90;97.60;;;;;;6153285;23;20020;-84
2023/05/02 12:36:32;;;;;;;6.22;1.25;;;13.00;98.40;;;;;;6126465;23;20475;-84
2023/05/02 12:38:58;;;;;;;5.20;1.17;;;13.30;98.40;;;;;;6151574;23;20009;-85
2023/05/02 12:41:31;;;;;;;4.95;1.10;;;13.40;97.60;;;;;;6126657;23;20032;-84
2023/05/02 12:43:59;;;;;;;3.80;1.00;;;13.40;95.70;;;;;;6126498;23;20017;-85
2023/05/02 12:46:27;;;;;;;3.85;1.20;;;13.40;96.00;;;;;;6126102;23;20024;-84
2023/05/02 12:49:08;;;;;;;3.00;1.00;;;13.40;95.80;;;;;;6153050;23;20183;-85
2023/05/02 12:51:35;;;;;;;2.08;0.80;;;13.70;96.40;;;;;;6151159;23;20017;-84
2023/05/02 12:54:01;;;;;;;4.18;1.02;;;13.50;95.60;;;;;;6151423;23;20013;-84